In Rescue
 
Open Full Screen Window  High Contrast Mode
Wind Gusting 00 knots
06
March 19, 2019 6:52 PM EDT
Weather Information
Wind Direction
  250 °
Wind Speed
  06 kt (7 mph)
Wind Gust
  00 kt (0 mph)
Altimeter
30.22 in
Visibility
10 SM
Temperature
06° C
43° F
Dewpoint
-09° C
16° F
Humidity
34%
Sky Condition
Clear
VFR

METAR KACB 192252Z AUTO 25006KT 10SM CLR 06/M09 A3022 RMK AO2 T00571088

FAA Disclaimer: The data displayed is for advisory purposes only and is not to be used for flight planning or operations.